createdAt,value
2023-04-21T00:01:56.373Z,13.50
2023-04-21T00:04:25.045Z,13.07
2023-04-21T00:06:54.651Z,13.45
2023-04-21T00:09:23.050Z,13.93
2023-04-21T00:11:51.259Z,17.73
2023-04-21T00:14:19.428Z,13.75
2023-04-21T00:16:52.484Z,13.57
2023-04-21T00:19:23.849Z,13.38
2023-04-21T00:21:52.015Z,14.05
2023-04-21T00:24:20.151Z,17.20
2023-04-21T00:26:48.251Z,16.00
2023-04-21T00:29:16.655Z,17.70
2023-04-21T00:31:45.082Z,16.17
2023-04-21T00:34:13.302Z,18.60
2023-04-21T00:36:42.854Z,16.57
2023-04-21T00:39:11.115Z,15.27
2023-04-21T00:41:40.064Z,12.10
2023-04-21T00:44:09.540Z,16.43
2023-04-21T00:46:38.604Z,19.00
2023-04-21T00:49:08.636Z,13.17
2023-04-21T00:51:38.485Z,14.43
2023-04-21T00:54:08.977Z,14.50
2023-04-21T00:56:37.617Z,15.23
2023-04-21T00:59:05.993Z,11.68
2023-04-21T01:01:36.566Z,15.23
2023-04-21T01:04:06.148Z,15.00
2023-04-21T01:06:35.202Z,13.27
2023-04-21T01:09:04.767Z,12.48
2023-04-21T01:11:34.515Z,12.55
2023-04-21T01:14:02.672Z,14.83
2023-04-21T01:16:32.818Z,13.18
2023-04-21T01:19:01.872Z,13.73
2023-04-21T01:21:32.084Z,13.37
2023-04-21T01:24:01.603Z,10.63
2023-04-21T01:26:29.764Z,13.50
2023-04-21T01:28:58.453Z,17.67
2023-04-21T01:31:27.395Z,13.27
2023-04-21T01:33:55.639Z,13.77
2023-04-21T01:36:23.882Z,13.90
2023-04-21T01:38:52.092Z,9.83
2023-04-21T01:41:21.666Z,14.23
2023-04-21T01:43:49.904Z,13.53
2023-04-21T01:46:20.932Z,13.17
2023-04-21T01:48:49.130Z,12.37
2023-04-21T01:51:17.301Z,12.17
2023-04-21T01:53:45.465Z,12.52
2023-04-21T01:56:15.495Z,13.15
2023-04-21T01:58:45.034Z,11.88
2023-04-21T02:01:13.248Z,12.40
2023-04-21T02:03:41.956Z,17.97
2023-04-21T02:06:10.494Z,13.27
2023-04-21T02:08:38.698Z,13.13
2023-04-21T02:11:06.902Z,12.20
2023-04-21T02:13:35.054Z,16.40
2023-04-21T02:16:13.548Z,13.30
2023-04-21T02:18:42.506Z,10.60
2023-04-21T02:21:10.695Z,15.40
2023-04-21T02:23:38.849Z,12.33
2023-04-21T02:26:07.277Z,14.40
2023-04-21T02:28:35.474Z,14.00
2023-04-21T02:31:05.136Z,15.50
2023-04-21T02:33:33.313Z,13.50
2023-04-21T02:36:01.461Z,13.43
2023-04-21T02:38:30.329Z,12.10
2023-04-21T02:40:58.592Z,14.93
2023-04-21T02:43:26.793Z,13.13
2023-04-21T02:45:55.096Z,11.03
2023-04-21T02:48:24.652Z,12.83
2023-04-21T02:50:53.761Z,13.93
2023-04-21T02:53:22.055Z,14.20
2023-04-21T02:55:50.207Z,12.50
2023-04-21T02:58:18.452Z,12.30
2023-04-21T03:00:46.707Z,10.33
2023-04-21T03:03:16.968Z,15.03
2023-04-21T03:05:46.724Z,13.27
2023-04-21T03:08:14.925Z,10.87
2023-04-21T03:10:43.272Z,9.63
2023-04-21T03:13:11.414Z,10.90
2023-04-21T03:15:39.633Z,10.63
2023-04-21T03:18:07.873Z,10.90
2023-04-21T03:20:36.166Z,12.00
2023-04-21T03:23:05.751Z,14.70
2023-04-21T03:25:34.022Z,13.00
2023-04-21T03:28:02.333Z,11.68
2023-04-21T03:30:30.621Z,11.67
2023-04-21T03:32:59.513Z,12.30
2023-04-21T03:35:27.875Z,11.87
2023-04-21T03:37:56.043Z,11.30
2023-04-21T03:40:25.825Z,14.83
2023-04-21T03:42:53.988Z,13.30
2023-04-21T03:45:22.766Z,12.10
2023-04-21T03:47:54.753Z,12.40
2023-04-21T03:50:23.499Z,13.00
2023-04-21T03:52:51.655Z,13.57
2023-04-21T03:55:20.080Z,15.03
2023-04-21T03:57:49.647Z,14.50
2023-04-21T04:00:17.956Z,11.93
2023-04-21T04:02:46.340Z,11.77
2023-04-21T04:05:14.885Z,12.00
2023-04-21T04:07:43.081Z,11.43
2023-04-21T04:10:11.584Z,13.83
2023-04-21T04:12:39.760Z,18.03
2023-04-21T04:15:10.218Z,19.17
2023-04-21T04:17:38.443Z,15.27
2023-04-21T04:20:08.410Z,9.90
2023-04-21T04:22:37.029Z,11.50
2023-04-21T04:25:05.524Z,16.23
2023-04-21T04:27:34.358Z,15.63
2023-04-21T04:30:03.280Z,11.23
2023-04-21T04:32:34.125Z,16.40
2023-04-21T04:35:02.556Z,16.60
2023-04-21T04:37:31.790Z,14.63
2023-04-21T04:39:59.975Z,13.10
2023-04-21T04:42:29.050Z,11.07
2023-04-21T04:44:57.587Z,16.90
2023-04-21T04:47:25.874Z,10.67
2023-04-21T04:49:55.474Z,12.57
2023-04-21T04:52:23.669Z,11.23
2023-04-21T04:54:51.811Z,13.97
2023-04-21T04:57:19.947Z,10.53
2023-04-21T04:59:48.132Z,10.53
2023-04-21T05:02:16.459Z,9.93
2023-04-21T05:04:44.842Z,11.47
2023-04-21T05:07:14.558Z,19.30
2023-04-21T05:09:42.774Z,13.97
2023-04-21T05:12:11.281Z,12.23
2023-04-21T05:14:39.427Z,12.87
2023-04-21T05:17:07.708Z,13.02
2023-04-21T05:19:37.451Z,15.32
2023-04-21T05:22:06.576Z,7.93
2023-04-21T05:24:36.459Z,10.50
2023-04-21T05:27:04.756Z,11.27
2023-04-21T05:29:34.260Z,11.13
2023-04-21T05:32:02.611Z,8.17
2023-04-21T05:34:30.820Z,12.77
2023-04-21T05:36:59.033Z,10.50
2023-04-21T05:39:29.087Z,12.57
2023-04-21T05:41:58.952Z,12.73
2023-04-21T05:44:27.117Z,8.93
2023-04-21T05:46:55.360Z,22.20
2023-04-21T05:49:23.553Z,11.60
2023-04-21T05:51:51.686Z,10.02
2023-04-21T05:54:20.184Z,10.75
2023-04-21T05:56:48.619Z,9.05
2023-04-21T05:59:18.198Z,8.95
2023-04-21T06:01:46.368Z,12.95
2023-04-21T06:04:14.820Z,9.77
2023-04-21T06:06:44.358Z,10.65
2023-04-21T06:09:15.669Z,11.85
2023-04-21T06:11:43.864Z,10.85
2023-04-21T06:14:12.045Z,11.95
2023-04-21T06:16:41.620Z,9.23
2023-04-21T06:19:09.881Z,10.05
2023-04-21T06:21:38.079Z,12.10
2023-04-21T06:24:06.679Z,22.38
2023-04-21T06:26:34.821Z,13.30
2023-04-21T06:29:02.996Z,10.88
2023-04-21T06:31:31.170Z,9.13
2023-04-21T06:34:00.784Z,12.07
2023-04-21T06:36:28.949Z,9.70
2023-04-21T06:38:57.161Z,11.65
2023-04-21T06:41:25.521Z,14.63
2023-04-21T06:43:53.798Z,8.63
2023-04-21T06:46:22.065Z,8.52
2023-04-21T06:48:50.326Z,7.70
2023-04-21T06:51:19.964Z,8.70
2023-04-21T06:53:48.138Z,12.65
2023-04-21T06:56:16.318Z,7.90
2023-04-21T06:58:45.886Z,11.77
2023-04-21T07:01:14.175Z,10.05
2023-04-21T07:03:42.414Z,9.05
2023-04-21T07:06:10.939Z,10.55
2023-04-21T07:08:41.264Z,8.07
2023-04-21T07:11:09.545Z,10.40
2023-04-21T07:13:37.791Z,11.48
2023-04-21T07:16:06.490Z,9.55
2023-04-21T07:18:34.782Z,8.82
2023-04-21T07:21:03.042Z,9.48
2023-04-21T07:23:31.242Z,12.63
2023-04-21T07:26:00.903Z,6.82
2023-04-21T07:28:29.101Z,11.75
2023-04-21T07:30:57.309Z,8.63
2023-04-21T07:33:25.628Z,10.38
2023-04-21T07:35:53.772Z,9.23
2023-04-21T07:38:21.942Z,9.98
2023-04-21T07:40:50.104Z,8.45
2023-04-21T07:43:20.156Z,9.93
2023-04-21T07:45:48.385Z,7.50
2023-04-21T07:48:16.651Z,10.50
2023-04-21T07:50:44.965Z,12.13
2023-04-21T07:53:13.358Z,7.22
2023-04-21T07:55:41.730Z,6.07
2023-04-21T07:58:10.480Z,8.48
2023-04-21T08:00:40.110Z,7.25
2023-04-21T08:03:08.633Z,8.32
2023-04-21T08:05:40.987Z,6.30
2023-04-21T08:08:10.569Z,13.00
2023-04-21T08:10:38.814Z,10.40
2023-04-21T08:13:07.097Z,6.53
2023-04-21T08:15:35.792Z,7.72
2023-04-21T08:18:05.801Z,5.45
2023-04-21T08:20:34.426Z,8.30
2023-04-21T08:23:02.719Z,6.13
2023-04-21T08:25:31.075Z,7.18
2023-04-21T08:27:59.356Z,7.30
2023-04-21T08:30:28.461Z,6.53
2023-04-21T08:32:56.732Z,10.77
2023-04-21T08:35:26.373Z,8.35
2023-04-21T08:37:54.644Z,15.10
2023-04-21T08:40:23.959Z,5.60
2023-04-21T08:42:52.212Z,15.27
2023-04-21T08:45:20.716Z,5.90
2023-04-21T08:47:50.562Z,4.68
2023-04-21T08:50:19.174Z,6.70
2023-04-21T08:52:48.801Z,12.95
2023-04-21T08:55:17.633Z,5.72
2023-04-21T08:57:45.933Z,5.90
2023-04-21T09:00:15.179Z,5.80
2023-04-21T09:03:01.345Z,5.30
2023-04-21T09:05:31.917Z,4.65
2023-04-21T09:08:11.533Z,7.63
2023-04-21T09:10:46.365Z,5.28
2023-04-21T09:13:15.051Z,14.80
2023-04-21T09:15:44.474Z,6.78
2023-04-21T09:18:15.387Z,5.22
2023-04-21T09:20:44.475Z,4.65
2023-04-21T09:23:14.231Z,10.90
2023-04-21T09:25:45.330Z,4.57
2023-04-21T09:28:15.510Z,7.82
2023-04-21T09:30:44.554Z,11.40
2023-04-21T09:33:27.863Z,11.50
2023-04-21T09:36:03.345Z,6.05
2023-04-21T09:38:34.323Z,5.15
2023-04-21T09:41:02.650Z,4.90
2023-04-21T09:43:32.009Z,5.72
2023-04-21T09:46:01.573Z,14.15
2023-04-21T09:48:34.684Z,5.90
2023-04-21T09:51:25.471Z,6.85
2023-04-21T09:53:59.535Z,7.88
2023-04-21T09:56:31.243Z,4.82
2023-04-21T09:59:02.767Z,11.48
2023-04-21T10:01:35.548Z,8.02
2023-04-21T10:04:04.531Z,7.40
2023-04-21T10:06:33.611Z,6.85
2023-04-21T10:09:05.358Z,5.18
2023-04-21T10:11:35.181Z,6.00
2023-04-21T10:14:03.953Z,8.20
2023-04-21T10:16:32.152Z,5.32
2023-04-21T10:19:00.507Z,5.53
2023-04-21T10:21:29.632Z,5.70
2023-04-21T10:23:59.256Z,5.00
2023-04-21T10:26:35.920Z,4.22
2023-04-21T10:29:06.923Z,3.72
2023-04-21T10:31:36.219Z,5.13
2023-04-21T10:34:29.975Z,7.15
2023-04-21T10:37:15.542Z,7.57
2023-04-21T10:39:53.283Z,12.20
2023-04-21T10:42:28.518Z,6.75
2023-04-21T10:45:08.450Z,6.95
2023-04-21T10:47:46.147Z,5.10
2023-04-21T10:50:20.402Z,7.20
2023-04-21T10:52:54.923Z,5.40
2023-04-21T10:55:23.975Z,7.78
2023-04-21T10:57:53.652Z,8.45
2023-04-21T11:00:23.860Z,3.83
2023-04-21T11:03:00.161Z,10.68
2023-04-21T11:05:30.572Z,6.78
2023-04-21T11:08:07.006Z,5.00
2023-04-21T11:10:51.034Z,5.35
2023-04-21T11:13:22.526Z,6.82
2023-04-21T11:16:06.643Z,4.45
2023-04-21T11:18:44.634Z,4.57
2023-04-21T11:21:18.164Z,6.50
2023-04-21T11:23:55.016Z,4.70
2023-04-21T11:26:53.769Z,8.93
2023-04-21T11:29:23.958Z,5.68
2023-04-21T11:31:54.088Z,6.03
2023-04-21T11:34:25.086Z,12.50
2023-04-21T11:36:55.535Z,7.30
2023-04-21T11:39:23.792Z,5.93
2023-04-21T11:41:53.450Z,6.50
2023-04-21T11:44:41.879Z,5.15
2023-04-21T11:47:17.266Z,4.68
2023-04-21T11:49:47.207Z,6.40
2023-04-21T11:52:23.365Z,9.45
2023-04-21T11:54:58.010Z,10.68
2023-04-21T11:57:27.490Z,13.63
2023-04-21T12:00:00.620Z,9.00
2023-04-21T12:02:31.022Z,5.88
2023-04-21T12:05:04.380Z,4.13
2023-04-21T12:07:33.540Z,5.25
2023-04-21T12:10:03.034Z,5.22
2023-04-21T12:12:31.822Z,6.97
2023-04-21T12:15:04.506Z,9.20
2023-04-21T12:17:38.443Z,14.25
2023-04-21T12:20:07.872Z,7.72
2023-04-21T12:22:36.130Z,4.57
2023-04-21T12:25:04.387Z,6.60
2023-04-21T12:27:32.627Z,7.20
2023-04-21T12:30:02.222Z,7.53
2023-04-21T12:32:30.937Z,15.18
2023-04-21T12:35:00.621Z,8.80
2023-04-21T12:37:29.181Z,7.72
2023-04-21T12:39:57.382Z,8.18
2023-04-21T12:42:25.784Z,5.60
2023-04-21T12:44:53.993Z,5.15
2023-04-21T12:47:23.665Z,11.20
2023-04-21T12:49:51.862Z,8.65
2023-04-21T12:52:20.051Z,7.35
2023-04-21T12:54:48.200Z,13.93
2023-04-21T12:57:16.879Z,10.07
2023-04-21T12:59:46.456Z,5.72
2023-04-21T13:02:15.021Z,4.65
2023-04-21T13:04:44.738Z,7.05
2023-04-21T13:07:13.013Z,4.72
2023-04-21T13:09:41.413Z,7.55
2023-04-21T13:12:09.756Z,9.73
2023-04-21T13:14:37.941Z,10.07
2023-04-21T13:17:06.206Z,5.50
2023-04-21T13:19:34.988Z,3.70
2023-04-21T13:22:04.739Z,4.78
2023-04-21T13:24:32.980Z,4.85
2023-04-21T13:27:02.514Z,6.88
2023-04-21T13:29:34.047Z,5.60
2023-04-21T13:32:02.379Z,7.50
2023-04-21T13:34:32.098Z,6.05
2023-04-21T13:37:00.859Z,5.20
2023-04-21T13:39:30.712Z,3.58
2023-04-21T13:41:59.140Z,5.85
2023-04-21T13:44:27.381Z,4.15
2023-04-21T13:46:57.397Z,4.53
2023-04-21T13:49:25.879Z,8.90
2023-04-21T13:51:54.064Z,8.77
2023-04-21T13:54:22.705Z,4.78
2023-04-21T13:56:52.957Z,6.68
2023-04-21T13:59:21.217Z,6.03
2023-04-21T14:01:49.578Z,4.72
2023-04-21T14:04:18.213Z,3.78
2023-04-21T14:06:46.526Z,5.43
2023-04-21T14:09:14.959Z,8.65
2023-04-21T14:11:43.139Z,6.20
2023-04-21T14:14:13.842Z,4.68
2023-04-21T14:16:45.316Z,8.10
2023-04-21T14:19:15.512Z,5.05
2023-04-21T14:21:44.133Z,5.28
2023-04-21T14:24:12.456Z,7.20
2023-04-21T14:26:40.719Z,4.13
2023-04-21T14:29:09.158Z,4.32
2023-04-21T14:31:38.829Z,5.28
2023-04-21T14:34:07.572Z,8.75
2023-04-21T14:36:35.787Z,7.13
2023-04-21T14:39:04.741Z,5.78
2023-04-21T14:41:32.901Z,4.00
2023-04-21T14:44:01.101Z,5.18
2023-04-21T14:46:29.444Z,5.10
2023-04-21T14:48:59.299Z,5.18
2023-04-21T14:51:27.762Z,7.63
2023-04-21T14:53:55.962Z,7.72
2023-04-21T14:56:24.219Z,5.60
2023-04-21T14:58:52.360Z,5.20
2023-04-21T15:01:21.277Z,4.35
2023-04-21T15:03:51.025Z,4.20
2023-04-21T15:06:21.110Z,8.55
2023-04-21T15:08:49.285Z,7.70
2023-04-21T15:11:17.517Z,3.85
2023-04-21T15:13:46.014Z,3.42
2023-04-21T15:16:14.961Z,7.93
2023-04-21T15:18:43.154Z,5.78
2023-04-21T15:21:11.927Z,4.18
2023-04-21T15:23:41.580Z,5.70
2023-04-21T15:26:09.824Z,10.98
2023-04-21T15:28:39.611Z,6.32
2023-04-21T15:31:09.912Z,7.38
2023-04-21T15:33:38.372Z,8.50
2023-04-21T15:36:06.811Z,7.57
2023-04-21T15:38:35.044Z,4.70
2023-04-21T15:41:04.697Z,8.70
2023-04-21T15:43:33.141Z,6.03
2023-04-21T15:46:01.380Z,10.90
2023-04-21T15:48:29.701Z,7.28
2023-04-21T15:50:58.010Z,11.32
2023-04-21T15:53:26.324Z,16.75
2023-04-21T15:55:54.545Z,5.45
2023-04-21T15:58:24.148Z,21.48
2023-04-21T16:00:52.412Z,12.30
2023-04-21T16:03:21.742Z,6.45
2023-04-21T16:05:50.375Z,5.82
2023-04-21T16:08:18.849Z,6.53
2023-04-21T16:10:47.105Z,13.38
2023-04-21T16:13:15.439Z,8.50
2023-04-21T16:15:45.158Z,8.52
2023-04-21T16:18:13.461Z,8.20
2023-04-21T16:20:42.736Z,27.27
2023-04-21T16:23:10.894Z,11.85
2023-04-21T16:25:39.574Z,9.65
2023-04-21T16:28:09.193Z,10.82
2023-04-21T16:30:38.675Z,9.38
2023-04-21T16:33:09.363Z,11.00
2023-04-21T16:35:37.730Z,35.95
2023-04-21T16:38:06.112Z,24.70
2023-04-21T16:40:34.680Z,22.80
2023-04-21T16:43:02.954Z,12.65
2023-04-21T16:45:31.383Z,8.52
2023-04-21T16:47:59.730Z,4.97
2023-04-21T16:50:29.649Z,3.97
2023-04-21T16:52:57.846Z,4.95
2023-04-21T16:55:26.095Z,13.57
2023-04-21T16:57:54.259Z,8.27
2023-04-21T17:00:22.532Z,7.30
2023-04-21T17:02:50.892Z,7.22
2023-04-21T17:05:19.260Z,8.63
2023-04-21T17:07:48.776Z,8.07
2023-04-21T17:10:16.933Z,12.65
2023-04-21T17:12:45.107Z,9.18
2023-04-21T17:15:13.426Z,23.50
2023-04-21T17:17:43.357Z,17.40
2023-04-21T17:20:13.303Z,11.90
2023-04-21T17:22:41.980Z,22.92
2023-04-21T17:25:12.616Z,11.18
2023-04-21T17:27:41.694Z,10.73
2023-04-21T17:30:10.975Z,7.63
2023-04-21T17:32:40.551Z,7.50
2023-04-21T17:35:09.486Z,13.90
2023-04-21T17:37:37.805Z,6.40
2023-04-21T17:40:07.832Z,13.02
2023-04-21T17:42:37.353Z,5.88
2023-04-21T17:45:07.552Z,11.18
2023-04-21T17:47:35.978Z,9.65
2023-04-21T17:50:04.590Z,12.05
2023-04-21T17:52:33.001Z,6.72
2023-04-21T17:55:01.236Z,8.93
2023-04-21T17:57:29.419Z,9.13
2023-04-21T17:59:58.990Z,9.80
2023-04-21T18:02:27.255Z,19.10
2023-04-21T18:04:55.508Z,10.75
2023-04-21T18:07:23.771Z,8.93
2023-04-21T18:09:52.419Z,12.75
2023-04-21T18:12:21.707Z,10.60
2023-04-21T18:14:50.061Z,13.32
2023-04-21T18:17:19.687Z,12.52
2023-04-21T18:19:47.909Z,15.85
2023-04-21T18:22:16.295Z,10.27
2023-04-21T18:24:44.774Z,9.80
2023-04-21T18:27:13.923Z,11.43
2023-04-21T18:29:42.072Z,21.52
2023-04-21T18:32:10.307Z,18.05
2023-04-21T18:34:41.471Z,14.23
2023-04-21T18:37:09.748Z,15.68
2023-04-21T18:39:37.928Z,16.08
2023-04-21T18:42:06.202Z,22.67
2023-04-21T18:44:34.477Z,20.38
2023-04-21T18:47:03.029Z,16.73
2023-04-21T18:49:31.224Z,21.90
2023-04-21T18:52:00.821Z,29.60
2023-04-21T18:54:29.004Z,29.98
2023-04-21T18:56:57.688Z,28.30
2023-04-21T18:59:27.187Z,25.45
2023-04-21T19:01:55.913Z,29.10
2023-04-21T19:04:24.255Z,27.95
2023-04-21T19:06:55.132Z,31.50
2023-04-21T19:09:24.769Z,34.72
2023-04-21T19:11:52.926Z,27.05
2023-04-21T19:14:21.294Z,29.90
2023-04-21T19:16:53.146Z,40.50
2023-04-21T19:19:22.083Z,34.88
2023-04-21T19:21:50.342Z,37.30
2023-04-21T19:24:18.506Z,33.35
2023-04-21T19:26:48.087Z,28.27
2023-04-21T19:29:16.576Z,26.48
2023-04-21T19:31:44.783Z,27.25
2023-04-21T19:34:13.348Z,26.98
2023-04-21T19:36:42.019Z,28.75
2023-04-21T19:39:10.320Z,26.52
2023-04-21T19:41:38.726Z,24.55
2023-04-21T19:44:11.176Z,26.27
2023-04-21T19:46:45.180Z,21.52
2023-04-21T19:49:14.297Z,23.55
2023-04-21T19:51:42.572Z,25.98
2023-04-21T19:54:12.298Z,28.60
2023-04-21T19:56:41.539Z,25.05
2023-04-21T19:59:11.791Z,29.60
2023-04-21T20:01:40.236Z,25.38
2023-04-21T20:04:11.597Z,22.80
2023-04-21T20:06:41.591Z,23.63
2023-04-21T20:09:10.476Z,24.33
2023-04-21T20:11:42.103Z,26.25
2023-04-21T20:14:12.473Z,21.67
2023-04-21T20:16:46.183Z,25.48
2023-04-21T20:19:17.352Z,25.75
2023-04-21T20:21:49.987Z,27.13
2023-04-21T20:24:21.295Z,22.08
2023-04-21T20:26:49.724Z,17.33
2023-04-21T20:29:21.263Z,25.48
2023-04-21T20:31:52.681Z,20.20
2023-04-21T20:34:26.253Z,20.73
2023-04-21T20:36:58.137Z,18.13
2023-04-21T20:39:30.993Z,20.55
2023-04-21T20:42:11.992Z,18.17
2023-04-21T20:44:42.921Z,21.40
2023-04-21T20:47:12.073Z,21.15
2023-04-21T20:49:41.108Z,15.38
2023-04-21T20:52:10.357Z,20.65
2023-04-21T20:54:44.666Z,23.38
2023-04-21T20:57:13.223Z,24.50
2023-04-21T20:59:45.946Z,22.83
2023-04-21T21:02:14.465Z,18.52
2023-04-21T21:04:43.219Z,17.52
2023-04-21T21:07:13.810Z,18.23
2023-04-21T21:09:42.270Z,18.98
2023-04-21T21:12:10.486Z,14.98
2023-04-21T21:14:38.801Z,14.85
2023-04-21T21:17:08.647Z,19.27
2023-04-21T21:19:37.137Z,16.05
2023-04-21T21:22:05.544Z,16.83
2023-04-21T21:24:34.058Z,17.25
2023-04-21T21:27:06.345Z,19.55
2023-04-21T21:29:34.987Z,20.02
2023-04-21T21:32:03.507Z,17.20
2023-04-21T21:34:33.073Z,21.42
2023-04-21T21:37:01.336Z,17.75
2023-04-21T21:39:31.978Z,15.60
2023-04-21T21:42:00.193Z,21.55
2023-04-21T21:44:28.315Z,18.10
2023-04-21T21:46:56.464Z,16.90
2023-04-21T21:49:24.625Z,21.20
2023-04-21T21:51:54.674Z,23.75
2023-04-21T21:54:22.848Z,25.65
2023-04-21T21:56:51.042Z,31.45
2023-04-21T21:59:19.230Z,17.60
2023-04-21T22:01:47.838Z,22.45
2023-04-21T22:04:16.093Z,24.50
2023-04-21T22:06:45.311Z,24.67
2023-04-21T22:09:14.839Z,25.02
2023-04-21T22:11:43.003Z,30.05
2023-04-21T22:14:21.865Z,30.98
2023-04-21T22:16:52.583Z,27.83
2023-04-21T22:19:21.098Z,29.08
2023-04-21T22:21:49.476Z,23.30
2023-04-21T22:24:19.597Z,22.98
2023-04-21T22:26:48.889Z,20.35
2023-04-21T22:29:17.113Z,21.75
2023-04-21T22:31:45.344Z,22.80
2023-04-21T22:34:15.016Z,25.40
2023-04-21T22:36:43.300Z,18.30
2023-04-21T22:39:11.677Z,21.42
2023-04-21T22:41:41.255Z,18.10
2023-04-21T22:44:09.519Z,19.20
2023-04-21T22:46:37.998Z,19.98
2023-04-21T22:49:06.689Z,19.13
2023-04-21T22:51:35.085Z,19.58
2023-04-21T22:54:03.331Z,20.70
2023-04-21T22:56:32.012Z,18.13
2023-04-21T22:59:01.559Z,18.95
2023-04-21T23:01:29.914Z,14.15
2023-04-21T23:03:58.178Z,15.18
2023-04-21T23:06:26.683Z,14.88
2023-04-21T23:08:54.824Z,13.98
2023-04-21T23:11:22.991Z,14.40
2023-04-21T23:13:51.282Z,14.60
2023-04-21T23:16:20.909Z,14.80
2023-04-21T23:18:49.376Z,16.08
2023-04-21T23:21:17.585Z,13.40
2023-04-21T23:23:45.784Z,16.10
2023-04-21T23:26:13.966Z,13.60
2023-04-21T23:28:42.150Z,13.38
2023-04-21T23:31:10.401Z,11.15
2023-04-21T23:33:39.944Z,16.05
2023-04-21T23:36:08.491Z,14.63
2023-04-21T23:38:36.658Z,14.98
2023-04-21T23:41:04.895Z,12.25
2023-04-21T23:43:34.570Z,11.88
2023-04-21T23:46:02.806Z,15.70
2023-04-21T23:48:31.046Z,16.65
2023-04-21T23:51:00.682Z,17.70
2023-04-21T23:53:28.910Z,14.77
2023-04-21T23:55:57.507Z,13.65
2023-04-21T23:58:25.826Z,13.05
